Time;durP1;ratioP1;P1;durP2;ratioP2;P2;SDS_P1;SDS_P2;PMS_P1;PMS_P2;Temp;Humidity;BMP_temperature;BMP_pressure;BME280_temperature;BME280_humidity;BME280_pressure;Samples;Min_cycle;Max_cycle;Signal;HPM_P1;HPM_P2
2021/07/17 00:04:21;;;;;;;27.13;14.73;;;19.70;99.90;;;;;;5019582;28;20045;-84
2021/07/17 00:07:20;;;;;;;31.70;15.50;;;19.50;99.90;;;;;;5024428;28;20080;-85
2021/07/17 00:10:04;;;;;;;29.33;15.98;;;19.60;99.90;;;;;;5024781;28;20218;-84
2021/07/17 00:18:33;;;;;;;30.40;15.15;;;19.50;99.90;;;;;;5012908;28;20064;-81
2021/07/17 00:21:12;;;;;;;32.97;16.60;;;19.50;99.90;;;;;;5022840;28;20425;-80
2021/07/17 00:23:57;;;;;;;29.80;15.70;;;19.40;99.90;;;;;;5023401;28;20049;-80
2021/07/17 00:26:32;;;;;;;36.53;16.83;;;19.40;99.90;;;;;;5023974;28;20081;-82
2021/07/17 00:30:06;;;;;;;31.33;15.65;;;19.40;99.90;;;;;;5027964;28;20054;-83
2021/07/17 00:35:34;;;;;;;32.40;15.02;;;19.30;99.90;;;;;;5001119;28;19917;-83
2021/07/17 00:41:24;;;;;;;31.85;16.05;;;19.40;99.90;;;;;;4991593;28;20142;-84
2021/07/17 00:44:05;;;;;;;31.60;16.27;;;19.40;99.90;;;;;;5024370;28;20065;-83
2021/07/17 00:46:50;;;;;;;32.58;16.52;;;19.30;99.90;;;;;;5027712;28;20092;-85
2021/07/17 00:49:29;;;;;;;31.20;16.45;;;19.20;99.90;;;;;;5026513;28;20054;-84
2021/07/17 00:51:56;;;;;;;34.28;17.35;;;19.20;99.90;;;;;;5020625;28;20133;-81
2021/07/17 00:54:31;;;;;;;36.33;17.10;;;19.20;99.90;;;;;;5019658;28;20134;-83
2021/07/17 00:57:10;;;;;;;28.17;16.52;;;19.20;99.90;;;;;;5019736;28;20089;-82
2021/07/17 00:59:46;;;;;;;29.30;16.48;;;19.30;99.90;;;;;;5019074;28;20498;-81
2021/07/17 01:15:25;;;;;;;37.65;17.13;;;19.30;99.90;;;;;;4901123;29;20527;-83
2021/07/17 01:18:39;;;;;;;39.05;17.92;;;19.30;99.90;;;;;;4900657;29;20053;-81
2021/07/17 01:21:20;;;;;;;28.55;16.60;;;19.30;99.90;;;;;;4902743;29;20139;-83
2021/07/17 01:23:49;;;;;;;30.45;17.67;;;19.30;99.90;;;;;;4961575;28;20058;-84
2021/07/17 01:26:17;;;;;;;30.77;17.63;;;19.30;99.90;;;;;;5002366;28;20156;-84
2021/07/17 01:28:44;;;;;;;38.47;17.85;;;19.30;99.90;;;;;;5023119;28;20058;-83
2021/07/17 01:31:11;;;;;;;35.75;18.65;;;19.30;99.90;;;;;;5024754;28;20050;-83
2021/07/17 01:33:39;;;;;;;33.92;18.00;;;19.20;99.90;;;;;;5026643;28;20085;-83
2021/07/17 01:36:06;;;;;;;38.45;17.85;;;19.30;99.90;;;;;;5028188;28;20495;-84
2021/07/17 01:38:34;;;;;;;38.25;19.15;;;19.20;99.90;;;;;;5029693;28;20498;-81
2021/07/17 01:41:02;;;;;;;33.00;17.27;;;19.20;99.90;;;;;;5023504;28;20478;-85
2021/07/17 01:43:29;;;;;;;32.90;19.05;;;19.20;99.90;;;;;;5021402;28;20110;-82
2021/07/17 01:45:59;;;;;;;39.10;18.05;;;19.20;99.90;;;;;;5021731;28;20120;-84
2021/07/17 01:48:26;;;;;;;38.97;18.30;;;19.20;99.90;;;;;;5021847;28;20050;-85
2021/07/17 01:50:53;;;;;;;36.67;19.35;;;19.20;99.90;;;;;;5021234;28;20085;-83
2021/07/17 01:53:21;;;;;;;38.58;18.40;;;19.20;99.90;;;;;;5020645;28;20149;-80
2021/07/17 01:55:49;;;;;;;31.98;18.80;;;19.10;99.90;;;;;;5020599;28;20113;-85
2021/07/17 01:58:16;;;;;;;37.30;18.65;;;19.10;99.90;;;;;;5020603;28;20050;-82
2021/07/17 02:00:43;;;;;;;36.83;18.38;;;19.10;99.90;;;;;;5020437;28;20550;-82
2021/07/17 02:03:11;;;;;;;40.50;19.05;;;19.10;99.90;;;;;;5019956;28;20589;-84
2021/07/17 02:05:38;;;;;;;42.03;18.75;;;19.00;99.90;;;;;;5018920;28;20546;-82
2021/07/17 02:08:06;;;;;;;36.60;20.20;;;19.10;99.90;;;;;;5018961;28;20049;-81
2021/07/17 02:10:34;;;;;;;37.72;18.55;;;19.00;99.90;;;;;;5018211;28;20046;-83
2021/07/17 02:13:04;;;;;;;37.28;19.27;;;19.10;99.90;;;;;;5019190;28;20133;-82
2021/07/17 02:15:33;;;;;;;35.80;18.08;;;19.10;99.90;;;;;;5020637;28;20065;-82
2021/07/17 02:18:00;;;;;;;35.22;19.17;;;19.10;99.90;;;;;;5018617;28;20046;-82
2021/07/17 02:20:28;;;;;;;33.30;18.70;;;19.10;99.90;;;;;;5018759;28;20536;-84
2021/07/17 02:22:56;;;;;;;31.73;17.65;;;19.10;99.90;;;;;;5024222;28;20113;-81
2021/07/17 02:25:25;;;;;;;36.13;18.67;;;19.00;99.90;;;;;;5032444;28;20081;-82
2021/07/17 02:27:52;;;;;;;38.83;18.42;;;19.00;99.90;;;;;;5022451;28;20081;-80
2021/07/17 02:30:20;;;;;;;41.17;19.52;;;19.10;99.90;;;;;;5015172;28;20104;-79
2021/07/17 02:32:47;;;;;;;34.38;18.45;;;19.00;99.90;;;;;;5016181;28;20150;-81
2021/07/17 02:35:14;;;;;;;35.17;19.60;;;19.00;99.90;;;;;;5019926;28;20056;-82
2021/07/17 02:37:41;;;;;;;39.78;19.50;;;19.00;99.90;;;;;;5020092;28;20157;-82
2021/07/17 02:40:09;;;;;;;36.45;19.13;;;19.00;99.90;;;;;;5020159;28;20109;-82
2021/07/17 02:42:37;;;;;;;31.23;19.30;;;19.00;99.90;;;;;;5019706;28;20057;-82
2021/07/17 02:45:06;;;;;;;44.20;20.52;;;18.90;99.90;;;;;;5022307;28;20490;-83
2021/07/17 02:47:35;;;;;;;41.78;20.10;;;19.00;99.90;;;;;;5025054;28;20078;-84
2021/07/17 02:50:05;;;;;;;36.28;20.08;;;18.90;99.90;;;;;;5022213;28;20537;-84
2021/07/17 02:52:32;;;;;;;35.53;18.77;;;19.00;99.90;;;;;;5021165;28;20081;-84
2021/07/17 02:55:01;;;;;;;38.00;19.35;;;19.00;99.90;;;;;;5022374;28;20053;-83
2021/07/17 02:57:58;;;;;;;31.73;18.95;;;19.00;99.90;;;;;;5061332;22;20069;-82
2021/07/17 03:00:33;;;;;;;35.85;19.13;;;19.00;99.90;;;;;;5001120;28;20057;-81
2021/07/17 03:03:02;;;;;;;41.72;19.60;;;18.90;99.90;;;;;;5008776;28;20051;-82
2021/07/17 03:05:28;;;;;;;39.08;19.05;;;18.90;99.90;;;;;;5009150;28;20077;-81
2021/07/17 03:07:57;;;;;;;33.42;19.42;;;18.90;99.90;;;;;;4999785;28;20114;-80
2021/07/17 03:10:27;;;;;;;41.45;18.55;;;18.90;99.90;;;;;;4999906;28;20046;-80
2021/07/17 03:12:53;;;;;;;36.05;18.10;;;18.90;99.90;;;;;;4999178;28;20157;-80
2021/07/17 03:15:20;;;;;;;35.15;18.45;;;18.90;99.90;;;;;;4999468;28;20135;-80
2021/07/17 03:17:47;;;;;;;32.80;18.27;;;18.80;99.90;;;;;;4998919;28;20086;-80
2021/07/17 03:20:15;;;;;;;33.83;18.65;;;18.80;99.90;;;;;;4999634;28;20105;-80
2021/07/17 03:22:43;;;;;;;39.08;18.23;;;18.80;99.90;;;;;;4998755;28;20141;-79
2021/07/17 03:25:10;;;;;;;37.50;18.98;;;18.80;99.90;;;;;;5000294;28;20164;-80
2021/07/17 03:27:37;;;;;;;39.85;18.77;;;18.80;99.90;;;;;;4999557;28;20140;-80
2021/07/17 03:30:06;;;;;;;36.85;19.33;;;18.80;99.90;;;;;;4998524;28;20050;-80
2021/07/17 03:32:34;;;;;;;32.90;17.48;;;18.70;99.90;;;;;;5004855;28;20110;-81
2021/07/17 03:35:01;;;;;;;37.95;18.92;;;18.70;99.90;;;;;;5006564;28;20086;-81
2021/07/17 03:37:29;;;;;;;36.38;18.02;;;18.80;99.90;;;;;;5007719;28;20054;-80
2021/07/17 03:39:56;;;;;;;33.13;18.83;;;18.80;99.90;;;;;;5006311;28;20110;-81
2021/07/17 03:42:23;;;;;;;39.60;20.10;;;18.80;99.90;;;;;;5006345;28;20082;-81
2021/07/17 03:44:50;;;;;;;37.50;19.42;;;18.70;99.90;;;;;;5006157;28;20054;-81
2021/07/17 03:47:17;;;;;;;41.00;18.98;;;18.70;99.90;;;;;;5007702;28;20050;-82
2021/07/17 03:49:44;;;;;;;34.35;19.02;;;18.70;99.90;;;;;;5007442;28;20050;-81
2021/07/17 03:52:11;;;;;;;34.78;18.73;;;18.70;99.90;;;;;;5007692;28;20081;-83
2021/07/17 03:54:39;;;;;;;34.03;18.83;;;18.70;99.90;;;;;;5007947;28;20162;-81
2021/07/17 03:57:06;;;;;;;35.67;19.00;;;18.70;99.90;;;;;;5006440;28;20065;-81
2021/07/17 03:59:33;;;;;;;33.67;18.05;;;18.70;99.90;;;;;;5002327;28;20089;-81
2021/07/17 04:02:00;;;;;;;38.10;19.33;;;18.70;99.90;;;;;;4999210;28;20053;-80
2021/07/17 04:04:27;;;;;;;35.67;18.65;;;18.70;99.90;;;;;;4997816;28;20078;-80
2021/07/17 04:06:54;;;;;;;34.72;18.83;;;18.70;99.90;;;;;;4998020;28;20149;-80
2021/07/17 04:09:21;;;;;;;38.70;19.17;;;18.70;99.90;;;;;;5004128;28;20110;-81
2021/07/17 04:11:50;;;;;;;33.47;19.20;;;18.70;99.90;;;;;;5005056;28;20110;-81
2021/07/17 04:14:17;;;;;;;36.75;18.88;;;18.60;99.90;;;;;;5004355;28;20080;-81
2021/07/17 04:16:44;;;;;;;43.45;18.52;;;18.60;99.90;;;;;;5004859;28;20375;-83
2021/07/17 04:19:11;;;;;;;38.17;18.38;;;18.60;99.90;;;;;;5006307;28;20074;-83
2021/07/17 04:21:37;;;;;;;40.20;18.85;;;18.60;99.90;;;;;;5004743;28;20081;-82
2021/07/17 04:24:05;;;;;;;40.63;18.67;;;18.60;99.90;;;;;;5004527;28;20499;-81
2021/07/17 04:26:32;;;;;;;38.08;19.00;;;18.60;99.90;;;;;;5005374;28;20081;-81
2021/07/17 04:29:00;;;;;;;33.60;18.25;;;18.60;99.90;;;;;;5005593;28;20054;-81
2021/07/17 04:31:27;;;;;;;34.90;18.60;;;18.60;99.90;;;;;;5006016;28;20369;-81
2021/07/17 04:33:56;;;;;;;40.95;18.85;;;18.60;99.90;;;;;;5005197;28;20216;-81
2021/07/17 04:36:23;;;;;;;35.53;19.15;;;18.70;99.90;;;;;;5004470;28;20074;-81
2021/07/17 04:38:50;;;;;;;38.20;18.98;;;18.70;99.90;;;;;;5005226;28;20089;-81
2021/07/17 04:41:17;;;;;;;36.40;18.23;;;18.60;99.90;;;;;;5004501;28;20106;-81
2021/07/17 04:43:44;;;;;;;41.40;19.27;;;18.60;99.90;;;;;;5001022;28;20082;-81
2021/07/17 04:46:12;;;;;;;32.63;18.88;;;18.60;99.90;;;;;;5001459;28;20050;-81
2021/07/17 04:48:39;;;;;;;34.47;18.05;;;18.60;99.90;;;;;;5003481;28;20101;-81
2021/07/17 04:51:06;;;;;;;37.05;18.40;;;18.70;99.90;;;;;;5003702;28;20061;-81
2021/07/17 04:53:32;;;;;;;35.17;18.83;;;18.70;99.90;;;;;;5007497;28;20050;-82
2021/07/17 04:55:59;;;;;;;35.25;19.13;;;18.70;99.90;;;;;;5008580;28;20077;-81
2021/07/17 04:58:28;;;;;;;37.05;18.33;;;18.70;99.90;;;;;;5008818;28;20065;-81
2021/07/17 05:00:54;;;;;;;35.22;19.50;;;18.80;99.90;;;;;;5009302;28;20078;-80
2021/07/17 05:03:23;;;;;;;33.90;19.02;;;18.80;99.90;;;;;;5008259;28;20054;-80
2021/07/17 05:05:50;;;;;;;39.50;19.23;;;18.80;99.90;;;;;;5004560;28;20057;-80
2021/07/17 05:08:17;;;;;;;34.17;19.08;;;18.80;99.90;;;;;;5004309;28;20061;-80
2021/07/17 05:10:44;;;;;;;38.58;18.13;;;18.70;99.90;;;;;;5004672;28;20046;-81
2021/07/17 05:13:12;;;;;;;34.70;17.15;;;18.70;99.90;;;;;;5002298;28;20050;-80
2021/07/17 05:15:39;;;;;;;32.05;18.33;;;18.80;99.90;;;;;;5002903;28;20476;-81
2021/07/17 05:18:06;;;;;;;31.02;18.20;;;18.80;99.90;;;;;;5004132;28;20110;-80
2021/07/17 05:20:35;;;;;;;32.13;18.27;;;18.80;99.90;;;;;;5005073;28;20118;-80
2021/07/17 05:23:02;;;;;;;34.38;18.17;;;18.80;99.90;;;;;;5004997;28;20129;-82
2021/07/17 05:25:29;;;;;;;30.13;17.25;;;18.90;99.90;;;;;;5002288;28;20137;-82
2021/07/17 05:27:55;;;;;;;33.95;17.80;;;18.90;99.90;;;;;;5000692;28;20050;-83
2021/07/17 05:30:22;;;;;;;32.65;17.10;;;19.00;99.90;;;;;;4995060;28;20130;-79
2021/07/17 05:32:49;;;;;;;29.95;17.55;;;19.10;99.90;;;;;;4993856;28;20085;-78
2021/07/17 05:35:16;;;;;;;31.17;18.13;;;19.10;99.90;;;;;;4994405;28;20217;-79
2021/07/17 05:37:45;;;;;;;30.75;16.85;;;19.20;99.90;;;;;;4993576;28;20050;-78
2021/07/17 05:40:13;;;;;;;30.25;16.63;;;19.30;99.90;;;;;;4994229;28;20088;-79
2021/07/17 05:42:40;;;;;;;27.02;16.73;;;19.40;99.90;;;;;;4996458;28;20183;-78
2021/07/17 05:45:08;;;;;;;34.92;17.05;;;19.40;99.90;;;;;;4993534;28;20094;-79
2021/07/17 05:47:35;;;;;;;27.48;16.42;;;19.40;99.90;;;;;;4993828;28;20050;-79
2021/07/17 05:50:02;;;;;;;33.97;17.63;;;19.40;99.90;;;;;;4996388;28;20482;-79
2021/07/17 05:52:28;;;;;;;36.63;17.58;;;19.40;99.90;;;;;;5001946;28;20082;-82
2021/07/17 05:54:57;;;;;;;36.22;17.65;;;19.40;99.90;;;;;;5001551;28;20082;-79
2021/07/17 05:57:23;;;;;;;37.97;18.23;;;19.30;99.90;;;;;;4994658;28;20054;-79
2021/07/17 05:59:50;;;;;;;34.92;17.20;;;19.30;99.90;;;;;;4998876;28;20137;-81
2021/07/17 06:02:18;;;;;;;28.70;16.40;;;19.30;99.90;;;;;;4995641;28;20126;-80
2021/07/17 06:04:45;;;;;;;34.85;17.35;;;19.20;99.90;;;;;;4993216;28;20050;-78
2021/07/17 06:07:11;;;;;;;30.50;17.13;;;19.30;99.90;;;;;;4993792;28;20138;-78
2021/07/17 06:09:41;;;;;;;32.28;17.55;;;19.20;99.90;;;;;;4994152;28;20050;-79
2021/07/17 06:12:10;;;;;;;26.38;17.00;;;19.20;99.90;;;;;;4992517;28;20486;-79
2021/07/17 06:14:37;;;;;;;32.47;17.58;;;19.20;99.90;;;;;;4993183;28;20092;-79
2021/07/17 06:17:04;;;;;;;35.85;18.00;;;19.30;99.90;;;;;;4992439;28;20137;-79
2021/07/17 06:19:31;;;;;;;33.90;17.92;;;19.30;99.90;;;;;;4992672;28;20054;-79
2021/07/17 06:21:58;;;;;;;32.17;17.98;;;19.30;99.90;;;;;;4992702;28;20050;-80
2021/07/17 06:24:25;;;;;;;30.90;20.02;;;19.30;99.90;;;;;;4992277;28;20046;-79
2021/07/17 06:26:52;;;;;;;33.92;18.38;;;19.30;99.90;;;;;;4993201;28;20053;-79
2021/07/17 06:29:20;;;;;;;40.20;20.63;;;19.20;99.90;;;;;;4993019;28;20481;-80
2021/07/17 06:31:47;;;;;;;36.05;18.73;;;19.20;99.90;;;;;;4992475;28;20054;-79
2021/07/17 06:34:15;;;;;;;30.25;18.55;;;19.30;99.90;;;;;;4992178;28;20054;-79
2021/07/17 06:36:41;;;;;;;33.25;19.38;;;19.30;99.90;;;;;;4992779;28;20085;-79
2021/07/17 06:39:08;;;;;;;37.33;20.45;;;19.40;99.90;;;;;;4993127;28;20046;-79
2021/07/17 06:41:35;;;;;;;38.00;17.98;;;19.40;99.90;;;;;;4993978;28;20055;-79
2021/07/17 06:44:02;;;;;;;34.42;16.85;;;19.40;99.90;;;;;;4993568;28;20049;-79
2021/07/17 06:46:30;;;;;;;30.95;18.17;;;19.40;99.90;;;;;;4993499;28;20050;-80
2021/07/17 06:48:57;;;;;;;35.42;19.40;;;19.50;99.90;;;;;;4994307;28;20050;-79
2021/07/17 06:51:24;;;;;;;34.63;19.50;;;19.50;99.90;;;;;;4993376;28;20060;-78
2021/07/17 06:53:51;;;;;;;30.73;18.10;;;19.60;99.90;;;;;;4992947;28;20394;-79
2021/07/17 06:56:18;;;;;;;43.25;19.45;;;19.60;99.90;;;;;;4992939;28;20062;-79
2021/07/17 06:58:44;;;;;;;37.45;21.40;;;19.70;99.90;;;;;;4993615;28;20054;-79
2021/07/17 07:01:11;;;;;;;40.83;20.55;;;19.70;99.90;;;;;;4992304;28;20505;-79
2021/07/17 07:03:40;;;;;;;36.92;19.38;;;19.70;99.90;;;;;;4992853;28;20053;-79
2021/07/17 07:06:07;;;;;;;32.72;19.60;;;19.60;99.90;;;;;;4993200;28;20050;-79
2021/07/17 07:08:33;;;;;;;40.00;20.52;;;19.60;99.90;;;;;;4992900;28;20089;-79
2021/07/17 07:11:00;;;;;;;35.83;20.55;;;19.60;99.90;;;;;;4993749;28;20065;-79
2021/07/17 07:13:27;;;;;;;36.60;20.67;;;19.70;99.90;;;;;;4994718;28;20049;-82
2021/07/17 07:15:54;;;;;;;33.83;20.65;;;19.70;99.90;;;;;;4995418;28;20133;-79
2021/07/17 07:18:21;;;;;;;40.10;20.08;;;19.70;99.90;;;;;;4994747;28;20109;-79
2021/07/17 07:20:49;;;;;;;34.80;19.83;;;19.70;99.90;;;;;;4993478;28;20132;-78
2021/07/17 07:23:16;;;;;;;34.33;20.52;;;19.80;99.90;;;;;;4992417;28;20339;-80
2021/07/17 07:25:43;;;;;;;31.48;22.02;;;19.90;99.90;;;;;;4992572;28;20110;-79
2021/07/17 07:28:10;;;;;;;34.22;23.67;;;19.90;99.90;;;;;;4996966;28;20098;-81
2021/07/17 07:30:37;;;;;;;39.83;24.02;;;19.90;99.90;;;;;;4996656;28;20137;-81
2021/07/17 07:33:04;;;;;;;37.03;22.30;;;19.90;99.90;;;;;;4995482;28;20100;-82
2021/07/17 07:35:31;;;;;;;39.22;22.90;;;19.90;99.90;;;;;;4995714;28;20108;-80
2021/07/17 07:37:59;;;;;;;38.20;21.92;;;19.90;99.90;;;;;;4993909;28;20093;-78
2021/07/17 07:40:29;;;;;;;35.72;21.95;;;19.90;99.90;;;;;;4990599;28;20148;-78
2021/07/17 07:42:56;;;;;;;38.78;22.13;;;19.90;99.90;;;;;;4992940;28;20427;-79
2021/07/17 07:45:23;;;;;;;35.22;21.17;;;20.00;99.90;;;;;;4993060;28;20138;-79
2021/07/17 07:47:51;;;;;;;36.05;22.48;;;20.20;99.90;;;;;;4993063;28;20053;-79
2021/07/17 07:50:19;;;;;;;41.80;25.83;;;20.20;99.90;;;;;;4994994;28;20499;-79
2021/07/17 07:52:46;;;;;;;39.63;24.77;;;20.30;99.90;;;;;;4995909;28;20061;-80
2021/07/17 07:55:15;;;;;;;38.75;26.88;;;20.40;99.90;;;;;;4995876;28;20125;-80
2021/07/17 07:57:41;;;;;;;41.78;27.40;;;20.40;99.90;;;;;;4993004;28;20051;-79
2021/07/17 08:00:10;;;;;;;42.55;28.33;;;20.40;99.90;;;;;;4992124;28;20065;-79
2021/07/17 08:02:37;;;;;;;39.50;27.98;;;20.40;99.90;;;;;;4991752;28;20137;-79
2021/07/17 08:05:05;;;;;;;42.13;26.10;;;20.40;99.90;;;;;;4992502;28;20137;-78
2021/07/17 08:07:31;;;;;;;41.80;27.10;;;20.40;99.90;;;;;;4991573;28;20053;-79
2021/07/17 08:09:58;;;;;;;41.17;25.45;;;20.40;99.90;;;;;;4990611;28;20105;-78
2021/07/17 08:12:27;;;;;;;34.08;25.27;;;20.50;99.90;;;;;;4990460;28;20145;-79
2021/07/17 08:14:53;;;;;;;35.50;25.17;;;20.50;99.90;;;;;;4990261;28;20050;-78
2021/07/17 08:17:20;;;;;;;35.63;25.85;;;20.50;99.90;;;;;;4986992;28;20043;-77
2021/07/17 08:19:47;;;;;;;40.28;26.20;;;20.50;99.90;;;;;;4989636;28;20137;-79
2021/07/17 08:22:14;;;;;;;45.25;28.35;;;20.60;99.90;;;;;;4992455;28;20593;-78
2021/07/17 08:24:41;;;;;;;41.97;29.75;;;20.60;99.90;;;;;;4992455;28;20153;-79
2021/07/17 08:27:08;;;;;;;43.17;28.25;;;20.60;99.90;;;;;;4996754;28;20046;-78
2021/07/17 08:29:36;;;;;;;47.67;29.27;;;20.60;99.90;;;;;;4995623;28;20058;-78
2021/07/17 08:32:03;;;;;;;40.22;29.30;;;20.60;99.90;;;;;;4994846;28;20130;-78
2021/07/17 08:34:29;;;;;;;51.70;29.40;;;20.60;99.90;;;;;;4994114;28;20459;-78
2021/07/17 08:36:56;;;;;;;43.97;29.65;;;20.70;99.90;;;;;;4995343;28;20120;-78
2021/07/17 08:39:23;;;;;;;52.05;32.33;;;20.80;99.90;;;;;;4994573;28;20046;-79
2021/07/17 08:41:51;;;;;;;49.47;32.60;;;20.80;99.90;;;;;;4995300;28;20046;-78
2021/07/17 08:44:18;;;;;;;45.42;32.10;;;20.80;99.90;;;;;;4998153;28;20047;-80
2021/07/17 08:46:47;;;;;;;50.17;33.08;;;20.70;99.90;;;;;;5002716;28;20058;-80
2021/07/17 08:49:15;;;;;;;49.05;31.85;;;20.70;99.90;;;;;;5002386;28;20130;-80
2021/07/17 08:51:49;;;;;;;48.80;33.08;;;20.70;99.90;;;;;;5004377;28;20060;-80
2021/07/17 08:54:17;;;;;;;41.25;31.33;;;20.60;99.90;;;;;;5001439;28;20050;-81
2021/07/17 08:56:45;;;;;;;52.70;33.05;;;20.60;99.90;;;;;;5002563;28;20080;-81
2021/07/17 08:59:14;;;;;;;47.15;32.95;;;20.80;99.90;;;;;;5001455;28;20222;-81
2021/07/17 09:01:41;;;;;;;47.35;32.88;;;20.90;99.90;;;;;;5000343;28;20102;-82
2021/07/17 09:04:16;;;;;;;50.20;31.95;;;21.00;99.90;;;;;;4998006;28;20128;-79
2021/07/17 09:06:43;;;;;;;42.22;31.50;;;21.00;99.90;;;;;;4999427;28;20046;-81
2021/07/17 09:09:29;;;;;;;49.33;30.20;;;21.10;99.90;;;;;;5001224;28;20121;-80
2021/07/17 09:11:56;;;;;;;44.60;28.67;;;21.20;99.90;;;;;;4997773;28;20054;-81
2021/07/17 09:14:36;;;;;;;38.53;29.08;;;21.40;99.90;;;;;;5001274;28;20072;-81
2021/07/17 09:17:03;;;;;;;41.55;29.75;;;21.60;99.90;;;;;;5001514;28;20133;-80
2021/07/17 09:19:32;;;;;;;38.40;29.08;;;21.60;99.90;;;;;;5001265;28;20096;-82
2021/07/17 09:24:26;;;;;;;43.53;30.30;;;21.60;99.90;;;;;;5033422;23;20054;-85
2021/07/17 09:26:58;;;;;;;52.28;30.75;;;21.50;99.90;;;;;;5021304;28;20190;-82
2021/07/17 09:29:35;;;;;;;42.03;29.85;;;21.60;99.90;;;;;;5021400;28;20057;-81
2021/07/17 09:32:05;;;;;;;40.58;28.15;;;21.60;99.90;;;;;;5021458;28;20061;-83
2021/07/17 09:34:37;;;;;;;42.05;27.98;;;21.60;99.90;;;;;;4993282;28;20138;-81
2021/07/17 09:37:07;;;;;;;41.08;27.70;;;21.60;99.90;;;;;;4987460;28;20154;-79
2021/07/17 09:39:37;;;;;;;43.17;27.83;;;21.60;99.90;;;;;;4987953;28;20057;-80
2021/07/17 09:42:06;;;;;;;41.88;28.67;;;21.80;99.90;;;;;;4988692;28;20405;-83
2021/07/17 09:44:37;;;;;;;40.90;27.38;;;21.80;99.90;;;;;;4989482;28;20129;-81
2021/07/17 09:47:15;;;;;;;37.00;26.80;;;21.90;99.90;;;;;;4989374;28;20089;-81
2021/07/17 09:49:43;;;;;;;39.33;25.60;;;22.20;99.90;;;;;;4988893;28;20051;-81
2021/07/17 09:52:17;;;;;;;35.85;24.70;;;22.10;99.90;;;;;;4988591;28;20100;-79
2021/07/17 09:55:04;;;;;;;35.38;26.45;;;22.10;99.90;;;;;;4988134;28;20059;-81
2021/07/17 09:57:31;;;;;;;35.03;25.70;;;22.20;99.90;;;;;;4989639;28;20134;-82
2021/07/17 10:00:03;;;;;;;40.38;27.52;;;22.40;99.90;;;;;;4992232;28;20054;-80
2021/07/17 10:02:31;;;;;;;33.67;25.23;;;22.60;99.90;;;;;;4989546;28;20129;-79
2021/07/17 10:05:02;;;;;;;37.05;24.38;;;22.80;99.90;;;;;;4986097;28;20050;-79
2021/07/17 10:07:30;;;;;;;34.95;24.23;;;23.20;99.90;;;;;;4995548;28;20125;-81
2021/07/17 10:09:57;;;;;;;33.58;24.30;;;23.30;99.90;;;;;;4990218;28;20061;-80
2021/07/17 10:12:33;;;;;;;34.55;22.58;;;23.40;99.90;;;;;;5002603;28;20085;-80
2021/07/17 10:15:01;;;;;;;28.15;23.02;;;23.80;99.90;;;;;;4986342;28;20057;-81
2021/07/17 10:17:35;;;;;;;29.10;21.98;;;23.60;99.90;;;;;;4983313;28;20086;-79
2021/07/17 10:20:04;;;;;;;29.23;23.35;;;23.30;99.90;;;;;;4981975;28;20142;-81
2021/07/17 10:22:33;;;;;;;31.73;21.25;;;23.10;99.90;;;;;;4981064;28;20495;-82
2021/07/17 10:25:00;;;;;;;30.45;21.80;;;23.30;99.90;;;;;;4992138;28;20161;-81
2021/07/17 10:27:27;;;;;;;30.38;21.10;;;23.30;99.90;;;;;;5003774;28;20054;-82
2021/07/17 10:29:54;;;;;;;29.83;20.50;;;23.20;99.90;;;;;;5004527;28;20123;-82
2021/07/17 10:32:22;;;;;;;27.05;20.77;;;23.20;99.90;;;;;;5002438;28;20105;-83
2021/07/17 10:34:50;;;;;;;24.20;19.25;;;23.40;99.90;;;;;;5006577;28;20056;-82
2021/07/17 10:37:21;;;;;;;29.40;17.52;;;23.60;99.90;;;;;;5008814;28;20074;-82
2021/07/17 10:40:00;;;;;;;22.88;16.88;;;23.80;99.90;;;;;;4996868;28;20047;-83
2021/07/17 10:42:28;;;;;;;23.83;15.93;;;24.00;99.90;;;;;;4985301;28;20154;-84
2021/07/17 10:45:06;;;;;;;22.58;16.25;;;24.10;99.90;;;;;;4986276;28;20071;-84
2021/07/17 10:47:40;;;;;;;20.42;14.82;;;24.20;99.90;;;;;;4983016;28;20519;-84
2021/07/17 10:50:53;;;;;;;24.25;15.98;;;24.40;99.90;;;;;;4984767;28;20051;-84
2021/07/17 10:53:57;;;;;;;23.27;14.52;;;24.50;99.90;;;;;;4981707;28;20109;-84
2021/07/17 11:00:49;;;;;;;20.92;14.95;;;24.10;99.90;;;;;;4942459;28;20063;-84
2021/07/17 11:03:49;;;;;;;22.20;14.95;;;23.90;99.90;;;;;;4974923;28;20102;-84
2021/07/17 11:06:39;;;;;;;21.17;13.77;;;23.70;99.90;;;;;;4980458;28;20082;-83
2021/07/17 11:09:33;;;;;;;23.20;13.65;;;23.50;99.90;;;;;;4971282;28;20054;-85
2021/07/17 11:12:19;;;;;;;17.48;11.90;;;23.90;99.90;;;;;;4999339;28;20058;-85
2021/07/17 11:14:46;;;;;;;19.88;12.90;;;24.20;99.90;;;;;;4990270;28;20246;-85
2021/07/17 11:17:31;;;;;;;19.73;11.88;;;24.30;99.90;;;;;;5000071;28;20092;-85
2021/07/17 11:23:42;;;;;;;20.73;11.30;;;24.40;99.90;;;;;;4988214;28;20418;-79
2021/07/17 11:26:47;;;;;;;16.83;11.55;;;24.50;99.90;;;;;;4994407;28;20089;-83
2021/07/17 11:29:39;;;;;;;22.08;12.07;;;24.20;99.90;;;;;;4974154;28;20057;-81
2021/07/17 11:32:19;;;;;;;17.38;11.27;;;23.90;99.90;;;;;;4992598;28;20058;-82
2021/07/17 11:34:50;;;;;;;23.85;12.48;;;24.20;99.90;;;;;;5009718;28;20118;-81
2021/07/17 11:37:29;;;;;;;20.63;12.13;;;24.40;99.90;;;;;;5003256;28;20047;-84
2021/07/17 11:40:02;;;;;;;22.63;12.73;;;24.60;99.90;;;;;;4991618;28;20492;-84
2021/07/17 11:43:16;;;;;;;19.52;13.73;;;24.70;99.90;;;;;;5007584;28;20117;-85
2021/07/17 11:45:55;;;;;;;20.27;10.48;;;25.00;99.90;;;;;;4996697;28;20092;-81
2021/07/17 11:48:32;;;;;;;15.02;9.25;;;25.10;99.90;;;;;;5005351;28;20073;-82
2021/07/17 11:51:09;;;;;;;20.15;11.25;;;25.20;99.90;;;;;;5001065;28;20448;-86
2021/07/17 11:53:49;;;;;;;19.02;10.85;;;25.30;99.90;;;;;;4990576;28;20051;-84
2021/07/17 11:56:25;;;;;;;19.30;11.25;;;25.40;99.90;;;;;;4990532;28;20039;-85
2021/07/17 11:59:14;;;;;;;20.95;11.15;;;25.30;99.90;;;;;;4992876;28;20070;-84
2021/07/17 12:02:05;;;;;;;16.27;9.98;;;25.20;99.90;;;;;;4999283;28;20057;-83
2021/07/17 12:04:39;;;;;;;17.60;9.40;;;25.10;99.90;;;;;;4995828;28;20053;-85
2021/07/17 12:07:11;;;;;;;17.88;9.63;;;25.20;99.90;;;;;;4988190;28;20138;-85
2021/07/17 12:09:41;;;;;;;14.52;7.80;;;25.40;99.90;;;;;;4987874;28;20109;-83
2021/07/17 12:12:24;;;;;;;14.32;8.15;;;25.40;99.90;;;;;;4994663;28;20046;-82
2021/07/17 12:15:08;;;;;;;14.43;8.32;;;25.50;99.90;;;;;;4994865;28;20069;-84
2021/07/17 12:17:35;;;;;;;16.08;7.75;;;25.60;99.90;;;;;;4993357;28;20125;-86
2021/07/17 12:20:12;;;;;;;13.85;8.50;;;25.60;99.90;;;;;;4989858;28;20071;-86
2021/07/17 12:22:46;;;;;;;17.25;8.27;;;25.60;99.90;;;;;;4993963;28;20125;-84
2021/07/17 12:25:17;;;;;;;13.75;7.70;;;25.40;99.90;;;;;;4996045;28;20129;-82
2021/07/17 12:27:59;;;;;;;13.70;7.78;;;25.40;99.90;;;;;;4992212;28;20058;-85
2021/07/17 12:30:29;;;;;;;15.68;8.18;;;25.40;99.90;;;;;;4986017;28;20134;-84
2021/07/17 12:33:22;;;;;;;14.27;7.57;;;25.40;99.90;;;;;;4990086;28;20129;-85
2021/07/17 12:35:50;;;;;;;17.73;8.07;;;25.30;99.90;;;;;;4990836;28;20122;-84
2021/07/17 12:38:21;;;;;;;10.25;7.15;;;25.40;99.90;;;;;;4989453;28;20221;-83
2021/07/17 12:41:04;;;;;;;17.00;7.60;;;25.50;99.90;;;;;;4988346;28;20081;-83
2021/07/17 12:43:49;;;;;;;11.25;7.43;;;25.70;99.90;;;;;;4987209;28;20043;-85
2021/07/17 12:46:22;;;;;;;15.25;7.45;;;25.60;99.90;;;;;;4987830;28;20059;-82
2021/07/17 12:48:55;;;;;;;12.52;6.88;;;25.40;99.90;;;;;;4994987;28;20515;-86
2021/07/17 12:51:25;;;;;;;13.93;7.13;;;25.40;99.90;;;;;;5004690;28;20124;-85
2021/07/17 12:54:01;;;;;;;15.15;8.00;;;25.40;99.90;;;;;;5004670;28;20054;-83
2021/07/17 12:56:38;;;;;;;15.13;7.25;;;25.50;99.90;;;;;;5006387;28;20060;-84
2021/07/17 12:59:12;;;;;;;14.43;7.32;;;25.70;99.90;;;;;;4998408;28;20054;-85
2021/07/17 13:01:45;;;;;;;12.82;6.82;;;25.70;99.90;;;;;;4986926;28;20054;-85
2021/07/17 13:04:44;;;;;;;13.90;7.65;;;25.90;99.90;;;;;;4985368;28;20047;-84
2021/07/17 13:10:18;;;;;;;15.70;7.35;;;25.90;99.90;;;;;;4992849;28;20380;-83
2021/07/17 13:12:52;;;;;;;11.93;6.80;;;26.00;99.90;;;;;;4990621;28;20058;-83
2021/07/17 13:15:21;;;;;;;10.35;6.30;;;26.00;99.90;;;;;;4992730;28;20106;-84
2021/07/17 13:18:01;;;;;;;11.00;6.63;;;26.00;99.90;;;;;;4994744;28;20065;-83
2021/07/17 13:20:30;;;;;;;12.80;6.53;;;26.20;99.90;;;;;;4992458;28;20046;-84
2021/07/17 13:23:01;;;;;;;12.95;6.57;;;26.30;99.90;;;;;;4994396;28;20050;-82
2021/07/17 13:25:28;;;;;;;12.65;6.90;;;26.20;99.90;;;;;;4991551;28;20046;-83
2021/07/17 13:28:04;;;;;;;10.18;6.07;;;26.20;99.90;;;;;;4996386;28;20081;-84
2021/07/17 13:30:32;;;;;;;9.10;6.25;;;26.30;99.90;;;;;;4996071;28;20133;-84